sensor_id;sensor_type;location;lat;lon;timestamp;temperature;humidity
53053;DHT22;38934;52.690;6.184;2023-10-31T00:01:49;10.10;99.90
53053;DHT22;38934;52.690;6.184;2023-10-31T00:04:15;10.10;99.90
53053;DHT22;38934;52.690;6.184;2023-10-31T00:06:41;10.10;99.90
53053;DHT22;38934;52.690;6.184;2023-10-31T00:09:07;10.20;99.90
53053;DHT22;38934;52.690;6.184;2023-10-31T00:11:32;10.00;99.90
53053;DHT22;38934;52.690;6.184;2023-10-31T00:13:58;10.10;99.90
53053;DHT22;38934;52.690;6.184;2023-10-31T00:16:24;10.00;99.90
53053;DHT22;38934;52.690;6.184;2023-10-31T00:18:50;10.00;99.90
53053;DHT22;38934;52.690;6.184;2023-10-31T00:21:15;10.20;99.90
53053;DHT22;38934;52.690;6.184;2023-10-31T00:23:48;10.00;99.90
53053;DHT22;38934;52.690;6.184;2023-10-31T00:26:14;9.90;99.90
53053;DHT22;38934;52.690;6.184;2023-10-31T00:28:40;10.00;99.90
53053;DHT22;38934;52.690;6.184;2023-10-31T00:31:06;10.20;99.90
53053;DHT22;38934;52.690;6.184;2023-10-31T00:33:37;10.00;99.90
53053;DHT22;38934;52.690;6.184;2023-10-31T00:36:03;9.90;99.90
53053;DHT22;38934;52.690;6.184;2023-10-31T00:38:29;9.70;99.90
53053;DHT22;38934;52.690;6.184;2023-10-31T00:40:54;9.60;99.90
53053;DHT22;38934;52.690;6.184;2023-10-31T00:43:20;9.70;99.90
53053;DHT22;38934;52.690;6.184;2023-10-31T00:45:45;9.90;99.90
53053;DHT22;38934;52.690;6.184;2023-10-31T00:48:11;9.60;99.90
53053;DHT22;38934;52.690;6.184;2023-10-31T00:50:37;9.60;99.90
53053;DHT22;38934;52.690;6.184;2023-10-31T00:53:04;9.50;99.90
53053;DHT22;38934;52.690;6.184;2023-10-31T00:55:30;9.70;99.90
53053;DHT22;38934;52.690;6.184;2023-10-31T00:57:55;9.90;99.90
53053;DHT22;38934;52.690;6.184;2023-10-31T01:00:21;9.50;99.90
53053;DHT22;38934;52.690;6.184;2023-10-31T01:02:47;9.40;99.90
53053;DHT22;38934;52.690;6.184;2023-10-31T01:05:12;9.40;99.90
53053;DHT22;38934;52.690;6.184;2023-10-31T01:07:38;9.60;99.90
53053;DHT22;38934;52.690;6.184;2023-10-31T01:10:04;9.80;99.90
53053;DHT22;38934;52.690;6.184;2023-10-31T01:12:30;9.50;99.90
53053;DHT22;38934;52.690;6.184;2023-10-31T01:14:56;9.40;99.90
53053;DHT22;38934;52.690;6.184;2023-10-31T01:17:22;9.50;99.90
53053;DHT22;38934;52.690;6.184;2023-10-31T01:19:47;9.50;99.90
53053;DHT22;38934;52.690;6.184;2023-10-31T01:22:13;9.30;99.90
53053;DHT22;38934;52.690;6.184;2023-10-31T01:24:39;10.10;99.90
53053;DHT22;38934;52.690;6.184;2023-10-31T01:27:04;9.50;99.90
53053;DHT22;38934;52.690;6.184;2023-10-31T01:29:30;9.30;99.90
53053;DHT22;38934;52.690;6.184;2023-10-31T01:31:56;9.40;99.90
53053;DHT22;38934;52.690;6.184;2023-10-31T01:34:22;9.40;99.90
53053;DHT22;38934;52.690;6.184;2023-10-31T01:36:48;9.80;99.90
53053;DHT22;38934;52.690;6.184;2023-10-31T01:39:13;9.50;99.90
53053;DHT22;38934;52.690;6.184;2023-10-31T01:41:42;9.60;99.90
53053;DHT22;38934;52.690;6.184;2023-10-31T01:44:09;9.30;99.90
53053;DHT22;38934;52.690;6.184;2023-10-31T01:46:35;9.20;99.90
53053;DHT22;38934;52.690;6.184;2023-10-31T01:49:00;9.40;99.90
53053;DHT22;38934;52.690;6.184;2023-10-31T01:51:27;9.40;99.90
53053;DHT22;38934;52.690;6.184;2023-10-31T01:53:53;9.30;99.90
53053;DHT22;38934;52.690;6.184;2023-10-31T01:56:19;9.30;99.90
53053;DHT22;38934;52.690;6.184;2023-10-31T01:58:45;9.40;99.90
53053;DHT22;38934;52.690;6.184;2023-10-31T02:01:12;9.20;99.90
53053;DHT22;38934;52.690;6.184;2023-10-31T02:03:38;9.50;99.90
53053;DHT22;38934;52.690;6.184;2023-10-31T02:06:04;9.60;99.90
53053;DHT22;38934;52.690;6.184;2023-10-31T02:08:30;9.50;99.90
53053;DHT22;38934;52.690;6.184;2023-10-31T02:10:56;9.50;99.90
53053;DHT22;38934;52.690;6.184;2023-10-31T02:13:22;9.80;99.90
53053;DHT22;38934;52.690;6.184;2023-10-31T02:15:48;9.70;99.90
53053;DHT22;38934;52.690;6.184;2023-10-31T02:18:14;9.50;99.90
53053;DHT22;38934;52.690;6.184;2023-10-31T02:20:39;9.40;99.90
53053;DHT22;38934;52.690;6.184;2023-10-31T02:23:07;9.50;99.90
53053;DHT22;38934;52.690;6.184;2023-10-31T02:25:33;9.70;99.90
53053;DHT22;38934;52.690;6.184;2023-10-31T02:27:59;9.70;99.90
53053;DHT22;38934;52.690;6.184;2023-10-31T02:30:25;9.70;99.90
53053;DHT22;38934;52.690;6.184;2023-10-31T02:32:50;9.80;99.90
53053;DHT22;38934;52.690;6.184;2023-10-31T02:35:17;9.50;99.90
53053;DHT22;38934;52.690;6.184;2023-10-31T02:37:44;9.80;99.90
53053;DHT22;38934;52.690;6.184;2023-10-31T02:40:10;9.70;99.90
53053;DHT22;38934;52.690;6.184;2023-10-31T02:42:36;9.80;99.90
53053;DHT22;38934;52.690;6.184;2023-10-31T02:45:02;9.60;99.90
53053;DHT22;38934;52.690;6.184;2023-10-31T02:47:28;9.60;99.90
53053;DHT22;38934;52.690;6.184;2023-10-31T02:49:54;9.80;99.90
53053;DHT22;38934;52.690;6.184;2023-10-31T02:52:20;9.80;99.90
53053;DHT22;38934;52.690;6.184;2023-10-31T02:54:45;9.80;99.90
53053;DHT22;38934;52.690;6.184;2023-10-31T02:57:11;9.80;99.90
53053;DHT22;38934;52.690;6.184;2023-10-31T02:59:37;9.90;99.90
53053;DHT22;38934;52.690;6.184;2023-10-31T03:02:02;9.80;99.90
53053;DHT22;38934;52.690;6.184;2023-10-31T03:04:28;9.90;99.90
53053;DHT22;38934;52.690;6.184;2023-10-31T03:06:54;9.80;99.90
53053;DHT22;38934;52.690;6.184;2023-10-31T03:09:19;9.80;99.90
53053;DHT22;38934;52.690;6.184;2023-10-31T03:11:45;9.70;99.90
53053;DHT22;38934;52.690;6.184;2023-10-31T03:14:11;9.70;99.90
53053;DHT22;38934;52.690;6.184;2023-10-31T03:16:36;10.10;99.90
53053;DHT22;38934;52.690;6.184;2023-10-31T03:19:02;9.80;99.90
53053;DHT22;38934;52.690;6.184;2023-10-31T03:21:27;9.90;99.90
53053;DHT22;38934;52.690;6.184;2023-10-31T03:23:53;10.10;99.90
53053;DHT22;38934;52.690;6.184;2023-10-31T03:26:21;9.90;99.90
53053;DHT22;38934;52.690;6.184;2023-10-31T03:28:47;9.90;99.90
53053;DHT22;38934;52.690;6.184;2023-10-31T03:31:13;9.70;99.90
53053;DHT22;38934;52.690;6.184;2023-10-31T03:33:40;9.60;99.90
53053;DHT22;38934;52.690;6.184;2023-10-31T03:36:06;9.90;99.90
53053;DHT22;38934;52.690;6.184;2023-10-31T03:38:32;9.80;99.90
53053;DHT22;38934;52.690;6.184;2023-10-31T03:40:58;9.60;99.90
53053;DHT22;38934;52.690;6.184;2023-10-31T03:43:23;9.90;99.90
53053;DHT22;38934;52.690;6.184;2023-10-31T03:45:49;9.90;99.90
53053;DHT22;38934;52.690;6.184;2023-10-31T03:48:18;9.90;99.90
53053;DHT22;38934;52.690;6.184;2023-10-31T03:50:44;9.80;99.90
53053;DHT22;38934;52.690;6.184;2023-10-31T03:53:10;9.60;99.90
53053;DHT22;38934;52.690;6.184;2023-10-31T03:55:36;9.60;99.90
53053;DHT22;38934;52.690;6.184;2023-10-31T03:58:01;10.20;99.90
53053;DHT22;38934;52.690;6.184;2023-10-31T04:00:27;9.80;99.90
53053;DHT22;38934;52.690;6.184;2023-10-31T04:02:53;10.10;99.90
53053;DHT22;38934;52.690;6.184;2023-10-31T04:05:19;9.70;99.90
53053;DHT22;38934;52.690;6.184;2023-10-31T04:07:48;9.70;99.90
53053;DHT22;38934;52.690;6.184;2023-10-31T04:10:14;9.80;99.90
53053;DHT22;38934;52.690;6.184;2023-10-31T04:12:40;9.90;99.90
53053;DHT22;38934;52.690;6.184;2023-10-31T04:15:09;9.80;99.90
53053;DHT22;38934;52.690;6.184;2023-10-31T04:17:35;9.80;99.90
53053;DHT22;38934;52.690;6.184;2023-10-31T04:20:01;9.70;99.90
53053;DHT22;38934;52.690;6.184;2023-10-31T04:22:26;9.80;99.90
53053;DHT22;38934;52.690;6.184;2023-10-31T04:24:52;9.60;99.90
53053;DHT22;38934;52.690;6.184;2023-10-31T04:27:17;9.70;99.90
53053;DHT22;38934;52.690;6.184;2023-10-31T04:29:44;9.80;99.90
53053;DHT22;38934;52.690;6.184;2023-10-31T04:32:10;9.60;99.90
53053;DHT22;38934;52.690;6.184;2023-10-31T04:34:35;9.80;99.90
53053;DHT22;38934;52.690;6.184;2023-10-31T04:37:01;9.80;99.90
53053;DHT22;38934;52.690;6.184;2023-10-31T04:39:27;9.80;99.90
53053;DHT22;38934;52.690;6.184;2023-10-31T04:41:53;9.80;99.90
53053;DHT22;38934;52.690;6.184;2023-10-31T04:44:18;10.00;99.90
53053;DHT22;38934;52.690;6.184;2023-10-31T04:46:44;10.00;99.90
53053;DHT22;38934;52.690;6.184;2023-10-31T04:49:10;9.60;99.90
53053;DHT22;38934;52.690;6.184;2023-10-31T04:51:36;9.80;99.90
53053;DHT22;38934;52.690;6.184;2023-10-31T04:54:02;10.00;99.90
53053;DHT22;38934;52.690;6.184;2023-10-31T04:56:28;9.80;99.90
53053;DHT22;38934;52.690;6.184;2023-10-31T04:58:54;9.80;99.90
53053;DHT22;38934;52.690;6.184;2023-10-31T05:01:20;9.70;99.90
53053;DHT22;38934;52.690;6.184;2023-10-31T05:03:45;9.80;99.90
53053;DHT22;38934;52.690;6.184;2023-10-31T05:06:11;9.60;99.90
53053;DHT22;38934;52.690;6.184;2023-10-31T05:08:37;9.80;99.90
53053;DHT22;38934;52.690;6.184;2023-10-31T05:11:03;9.60;99.90
53053;DHT22;38934;52.690;6.184;2023-10-31T05:13:28;9.70;99.90
53053;DHT22;38934;52.690;6.184;2023-10-31T05:15:54;9.60;99.90
53053;DHT22;38934;52.690;6.184;2023-10-31T05:18:20;10.40;99.90
53053;DHT22;38934;52.690;6.184;2023-10-31T05:20:46;9.70;99.90
53053;DHT22;38934;52.690;6.184;2023-10-31T05:23:11;9.80;99.90
53053;DHT22;38934;52.690;6.184;2023-10-31T05:25:37;9.70;99.90
53053;DHT22;38934;52.690;6.184;2023-10-31T05:28:03;9.60;99.90
53053;DHT22;38934;52.690;6.184;2023-10-31T05:30:31;9.90;99.90
53053;DHT22;38934;52.690;6.184;2023-10-31T05:32:56;9.60;99.90
53053;DHT22;38934;52.690;6.184;2023-10-31T05:35:22;9.60;99.90
53053;DHT22;38934;52.690;6.184;2023-10-31T05:37:48;9.60;99.90
53053;DHT22;38934;52.690;6.184;2023-10-31T05:40:15;9.60;99.90
53053;DHT22;38934;52.690;6.184;2023-10-31T05:42:41;9.80;99.90
53053;DHT22;38934;52.690;6.184;2023-10-31T05:45:08;9.80;99.90
53053;DHT22;38934;52.690;6.184;2023-10-31T05:47:33;9.80;99.90
53053;DHT22;38934;52.690;6.184;2023-10-31T05:49:59;9.60;99.90
53053;DHT22;38934;52.690;6.184;2023-10-31T05:52:29;9.80;99.90
53053;DHT22;38934;52.690;6.184;2023-10-31T05:54:58;9.80;99.90
53053;DHT22;38934;52.690;6.184;2023-10-31T05:57:24;9.60;99.90
53053;DHT22;38934;52.690;6.184;2023-10-31T05:59:49;9.80;99.90
53053;DHT22;38934;52.690;6.184;2023-10-31T06:02:17;9.60;99.90
53053;DHT22;38934;52.690;6.184;2023-10-31T06:04:43;9.70;99.90
53053;DHT22;38934;52.690;6.184;2023-10-31T06:07:10;9.50;99.90
53053;DHT22;38934;52.690;6.184;2023-10-31T06:09:38;9.70;99.90
53053;DHT22;38934;52.690;6.184;2023-10-31T06:12:04;9.70;99.90
53053;DHT22;38934;52.690;6.184;2023-10-31T06:14:30;9.70;99.90
53053;DHT22;38934;52.690;6.184;2023-10-31T06:16:56;9.70;99.90
53053;DHT22;38934;52.690;6.184;2023-10-31T06:19:24;9.50;99.90
53053;DHT22;38934;52.690;6.184;2023-10-31T06:21:50;10.00;99.90
53053;DHT22;38934;52.690;6.184;2023-10-31T06:24:15;9.80;99.90
53053;DHT22;38934;52.690;6.184;2023-10-31T06:26:49;9.60;99.90
53053;DHT22;38934;52.690;6.184;2023-10-31T06:29:15;9.60;99.90
53053;DHT22;38934;52.690;6.184;2023-10-31T06:31:40;9.90;99.90
53053;DHT22;38934;52.690;6.184;2023-10-31T06:34:06;9.80;99.90
53053;DHT22;38934;52.690;6.184;2023-10-31T06:36:32;9.70;99.90
53053;DHT22;38934;52.690;6.184;2023-10-31T06:38:57;9.60;99.90
53053;DHT22;38934;52.690;6.184;2023-10-31T06:41:24;9.80;99.90
53053;DHT22;38934;52.690;6.184;2023-10-31T06:43:49;9.90;99.90
53053;DHT22;38934;52.690;6.184;2023-10-31T06:46:15;9.60;99.90
53053;DHT22;38934;52.690;6.184;2023-10-31T06:48:41;9.90;99.90
53053;DHT22;38934;52.690;6.184;2023-10-31T06:51:08;9.70;99.90
53053;DHT22;38934;52.690;6.184;2023-10-31T06:53:34;9.90;99.90
53053;DHT22;38934;52.690;6.184;2023-10-31T06:56:00;9.90;99.90
53053;DHT22;38934;52.690;6.184;2023-10-31T06:58:26;10.30;99.90
53053;DHT22;38934;52.690;6.184;2023-10-31T07:00:51;10.00;99.90
53053;DHT22;38934;52.690;6.184;2023-10-31T07:03:17;10.00;99.90
53053;DHT22;38934;52.690;6.184;2023-10-31T07:05:43;9.80;99.90
53053;DHT22;38934;52.690;6.184;2023-10-31T07:08:08;9.80;99.90
53053;DHT22;38934;52.690;6.184;2023-10-31T07:10:34;9.90;99.90
53053;DHT22;38934;52.690;6.184;2023-10-31T07:13:00;9.90;99.90
53053;DHT22;38934;52.690;6.184;2023-10-31T07:15:26;9.80;99.90
53053;DHT22;38934;52.690;6.184;2023-10-31T07:17:51;9.90;99.90
53053;DHT22;38934;52.690;6.184;2023-10-31T07:20:17;9.90;99.90
53053;DHT22;38934;52.690;6.184;2023-10-31T07:22:43;10.00;99.90
53053;DHT22;38934;52.690;6.184;2023-10-31T07:25:09;10.10;99.90
53053;DHT22;38934;52.690;6.184;2023-10-31T07:27:35;10.10;99.90
53053;DHT22;38934;52.690;6.184;2023-10-31T07:30:02;9.90;99.90
53053;DHT22;38934;52.690;6.184;2023-10-31T07:32:29;10.00;99.90
53053;DHT22;38934;52.690;6.184;2023-10-31T07:34:55;10.00;99.90
53053;DHT22;38934;52.690;6.184;2023-10-31T07:37:20;10.10;99.90
53053;DHT22;38934;52.690;6.184;2023-10-31T07:39:46;10.20;99.90
53053;DHT22;38934;52.690;6.184;2023-10-31T07:42:12;10.10;99.90
53053;DHT22;38934;52.690;6.184;2023-10-31T07:44:37;10.30;99.90
53053;DHT22;38934;52.690;6.184;2023-10-31T07:47:04;10.10;99.90
53053;DHT22;38934;52.690;6.184;2023-10-31T07:49:30;10.20;99.90
53053;DHT22;38934;52.690;6.184;2023-10-31T07:51:56;10.30;99.90
53053;DHT22;38934;52.690;6.184;2023-10-31T07:54:21;10.40;99.90
53053;DHT22;38934;52.690;6.184;2023-10-31T07:56:47;10.40;99.90
53053;DHT22;38934;52.690;6.184;2023-10-31T07:59:13;10.50;99.90
53053;DHT22;38934;52.690;6.184;2023-10-31T08:01:38;10.40;99.90
53053;DHT22;38934;52.690;6.184;2023-10-31T08:04:04;10.70;99.90
53053;DHT22;38934;52.690;6.184;2023-10-31T08:06:30;10.40;99.90
53053;DHT22;38934;52.690;6.184;2023-10-31T08:08:55;10.70;99.90
53053;DHT22;38934;52.690;6.184;2023-10-31T08:11:21;11.00;99.90
53053;DHT22;38934;52.690;6.184;2023-10-31T08:13:47;10.60;99.90
53053;DHT22;38934;52.690;6.184;2023-10-31T08:16:18;10.50;99.90
53053;DHT22;38934;52.690;6.184;2023-10-31T08:18:45;10.80;99.90
53053;DHT22;38934;52.690;6.184;2023-10-31T08:21:11;10.60;99.90
53053;DHT22;38934;52.690;6.184;2023-10-31T08:23:37;10.60;99.90
53053;DHT22;38934;52.690;6.184;2023-10-31T08:26:03;10.60;99.90
53053;DHT22;38934;52.690;6.184;2023-10-31T08:28:29;10.40;99.90
53053;DHT22;38934;52.690;6.184;2023-10-31T08:30:56;10.70;99.90
53053;DHT22;38934;52.690;6.184;2023-10-31T08:33:21;10.50;99.90
53053;DHT22;38934;52.690;6.184;2023-10-31T08:35:47;10.50;99.90
53053;DHT22;38934;52.690;6.184;2023-10-31T08:38:15;10.40;99.90
53053;DHT22;38934;52.690;6.184;2023-10-31T08:40:41;10.40;99.90
53053;DHT22;38934;52.690;6.184;2023-10-31T08:43:06;10.50;99.90
53053;DHT22;38934;52.690;6.184;2023-10-31T08:45:33;10.50;99.90
53053;DHT22;38934;52.690;6.184;2023-10-31T08:47:59;10.60;99.90
53053;DHT22;38934;52.690;6.184;2023-10-31T08:50:25;10.50;99.90
53053;DHT22;38934;52.690;6.184;2023-10-31T08:52:51;10.50;99.90
53053;DHT22;38934;52.690;6.184;2023-10-31T08:55:17;10.60;99.90
53053;DHT22;38934;52.690;6.184;2023-10-31T08:57:43;10.80;99.90
53053;DHT22;38934;52.690;6.184;2023-10-31T09:00:09;10.70;99.90
53053;DHT22;38934;52.690;6.184;2023-10-31T09:02:35;10.80;99.90
53053;DHT22;38934;52.690;6.184;2023-10-31T09:05:00;11.10;99.90
53053;DHT22;38934;52.690;6.184;2023-10-31T09:07:26;10.70;99.90
53053;DHT22;38934;52.690;6.184;2023-10-31T09:09:52;10.80;99.90
53053;DHT22;38934;52.690;6.184;2023-10-31T09:12:18;10.70;99.90
53053;DHT22;38934;52.690;6.184;2023-10-31T09:14:43;10.70;99.90
53053;DHT22;38934;52.690;6.184;2023-10-31T09:17:09;10.90;99.90
53053;DHT22;38934;52.690;6.184;2023-10-31T09:19:35;10.80;99.90
53053;DHT22;38934;52.690;6.184;2023-10-31T09:22:00;10.80;99.90
53053;DHT22;38934;52.690;6.184;2023-10-31T09:24:26;10.70;99.90
53053;DHT22;38934;52.690;6.184;2023-10-31T09:26:52;10.80;99.90
53053;DHT22;38934;52.690;6.184;2023-10-31T09:29:17;10.80;99.90
53053;DHT22;38934;52.690;6.184;2023-10-31T09:31:43;10.90;99.90
53053;DHT22;38934;52.690;6.184;2023-10-31T09:34:09;10.80;99.90
53053;DHT22;38934;52.690;6.184;2023-10-31T09:36:35;10.80;99.90
53053;DHT22;38934;52.690;6.184;2023-10-31T09:39:01;11.00;99.90
53053;DHT22;38934;52.690;6.184;2023-10-31T09:41:26;11.00;99.90
53053;DHT22;38934;52.690;6.184;2023-10-31T09:43:53;11.00;99.90
53053;DHT22;38934;52.690;6.184;2023-10-31T09:46:19;11.00;99.90
53053;DHT22;38934;52.690;6.184;2023-10-31T09:48:45;11.00;99.90
53053;DHT22;38934;52.690;6.184;2023-10-31T09:51:10;11.10;99.90
53053;DHT22;38934;52.690;6.184;2023-10-31T09:53:41;11.00;99.90
53053;DHT22;38934;52.690;6.184;2023-10-31T09:56:07;11.20;99.90
53053;DHT22;38934;52.690;6.184;2023-10-31T09:58:37;11.30;99.90
53053;DHT22;38934;52.690;6.184;2023-10-31T10:01:05;11.30;99.90
53053;DHT22;38934;52.690;6.184;2023-10-31T10:03:30;11.30;99.90
53053;DHT22;38934;52.690;6.184;2023-10-31T10:05:56;11.30;99.90
53053;DHT22;38934;52.690;6.184;2023-10-31T10:08:22;11.40;99.90
53053;DHT22;38934;52.690;6.184;2023-10-31T10:10:49;11.50;99.90
53053;DHT22;38934;52.690;6.184;2023-10-31T10:13:21;11.60;99.90
53053;DHT22;38934;52.690;6.184;2023-10-31T10:15:48;11.80;99.90
53053;DHT22;38934;52.690;6.184;2023-10-31T10:18:34;11.80;99.90
53053;DHT22;38934;52.690;6.184;2023-10-31T10:21:02;11.90;99.90
53053;DHT22;38934;52.690;6.184;2023-10-31T10:23:29;12.00;99.90
53053;DHT22;38934;52.690;6.184;2023-10-31T10:25:56;12.00;99.90
53053;DHT22;38934;52.690;6.184;2023-10-31T10:28:22;12.20;99.90
53053;DHT22;38934;52.690;6.184;2023-10-31T10:30:51;12.30;99.90
53053;DHT22;38934;52.690;6.184;2023-10-31T10:33:17;12.50;99.90
53053;DHT22;38934;52.690;6.184;2023-10-31T10:35:44;12.60;99.90
53053;DHT22;38934;52.690;6.184;2023-10-31T10:38:18;12.70;99.90
53053;DHT22;38934;52.690;6.184;2023-10-31T10:40:48;12.80;99.90
53053;DHT22;38934;52.690;6.184;2023-10-31T10:43:26;12.80;99.90
53053;DHT22;38934;52.690;6.184;2023-10-31T10:45:58;12.90;99.90
53053;DHT22;38934;52.690;6.184;2023-10-31T10:48:25;13.00;99.90
53053;DHT22;38934;52.690;6.184;2023-10-31T10:51:00;13.10;99.90
53053;DHT22;38934;52.690;6.184;2023-10-31T10:53:55;13.20;99.90
53053;DHT22;38934;52.690;6.184;2023-10-31T10:56:26;13.10;99.90
53053;DHT22;38934;52.690;6.184;2023-10-31T10:59:03;13.00;99.90
53053;DHT22;38934;52.690;6.184;2023-10-31T11:01:33;13.00;99.90
53053;DHT22;38934;52.690;6.184;2023-10-31T11:04:01;12.90;99.90
53053;DHT22;38934;52.690;6.184;2023-10-31T11:06:29;12.80;99.90
53053;DHT22;38934;52.690;6.184;2023-10-31T11:08:55;12.80;99.90
53053;DHT22;38934;52.690;6.184;2023-10-31T11:11:22;12.80;99.90
53053;DHT22;38934;52.690;6.184;2023-10-31T11:13:50;12.80;99.90
53053;DHT22;38934;52.690;6.184;2023-10-31T11:16:41;12.80;99.90
53053;DHT22;38934;52.690;6.184;2023-10-31T11:19:09;12.60;99.90
53053;DHT22;38934;52.690;6.184;2023-10-31T11:21:35;12.60;99.90
53053;DHT22;38934;52.690;6.184;2023-10-31T11:24:02;12.60;99.90
53053;DHT22;38934;52.690;6.184;2023-10-31T11:26:31;12.60;99.90
53053;DHT22;38934;52.690;6.184;2023-10-31T11:29:08;12.60;99.90
53053;DHT22;38934;52.690;6.184;2023-10-31T11:31:37;12.50;99.90
53053;DHT22;38934;52.690;6.184;2023-10-31T11:34:03;12.60;99.90
53053;DHT22;38934;52.690;6.184;2023-10-31T11:36:32;12.60;99.90
53053;DHT22;38934;52.690;6.184;2023-10-31T11:39:20;12.60;99.90
53053;DHT22;38934;52.690;6.184;2023-10-31T11:41:54;12.50;99.90
53053;DHT22;38934;52.690;6.184;2023-10-31T11:44:26;12.40;99.90
53053;DHT22;38934;52.690;6.184;2023-10-31T11:46:52;12.30;99.90
53053;DHT22;38934;52.690;6.184;2023-10-31T11:49:45;12.20;99.90
53053;DHT22;38934;52.690;6.184;2023-10-31T11:52:15;12.20;99.90
53053;DHT22;38934;52.690;6.184;2023-10-31T11:54:41;12.20;99.90
53053;DHT22;38934;52.690;6.184;2023-10-31T11:57:07;12.20;99.90
53053;DHT22;38934;52.690;6.184;2023-10-31T11:59:39;12.10;99.90
53053;DHT22;38934;52.690;6.184;2023-10-31T12:02:15;12.10;99.90
53053;DHT22;38934;52.690;6.184;2023-10-31T12:04:41;12.00;99.90
53053;DHT22;38934;52.690;6.184;2023-10-31T12:07:06;12.00;99.90
53053;DHT22;38934;52.690;6.184;2023-10-31T12:09:33;12.00;99.90
53053;DHT22;38934;52.690;6.184;2023-10-31T12:11:58;12.10;99.90
53053;DHT22;38934;52.690;6.184;2023-10-31T12:14:24;12.00;99.90
53053;DHT22;38934;52.690;6.184;2023-10-31T12:16:50;12.00;99.90
53053;DHT22;38934;52.690;6.184;2023-10-31T12:19:15;12.00;99.90
53053;DHT22;38934;52.690;6.184;2023-10-31T12:21:46;12.00;99.90
53053;DHT22;38934;52.690;6.184;2023-10-31T12:24:16;12.10;99.90
53053;DHT22;38934;52.690;6.184;2023-10-31T12:26:43;12.20;99.90
53053;DHT22;38934;52.690;6.184;2023-10-31T12:29:20;12.30;99.90
53053;DHT22;38934;52.690;6.184;2023-10-31T12:31:48;12.30;99.90
53053;DHT22;38934;52.690;6.184;2023-10-31T12:34:15;12.30;99.90
53053;DHT22;38934;52.690;6.184;2023-10-31T12:36:41;12.30;99.90
53053;DHT22;38934;52.690;6.184;2023-10-31T12:39:10;12.20;99.90
53053;DHT22;38934;52.690;6.184;2023-10-31T12:41:37;12.20;99.90
53053;DHT22;38934;52.690;6.184;2023-10-31T12:44:04;12.10;99.90
53053;DHT22;38934;52.690;6.184;2023-10-31T12:46:31;12.00;99.90
53053;DHT22;38934;52.690;6.184;2023-10-31T12:48:58;12.00;99.90
53053;DHT22;38934;52.690;6.184;2023-10-31T12:51:24;11.90;99.90
53053;DHT22;38934;52.690;6.184;2023-10-31T12:53:53;12.00;99.90
53053;DHT22;38934;52.690;6.184;2023-10-31T12:56:41;11.90;99.90
53053;DHT22;38934;52.690;6.184;2023-10-31T12:59:08;11.90;99.90
53053;DHT22;38934;52.690;6.184;2023-10-31T13:01:35;12.00;99.90
53053;DHT22;38934;52.690;6.184;2023-10-31T13:04:02;12.00;99.90
53053;DHT22;38934;52.690;6.184;2023-10-31T13:06:28;12.00;99.90
53053;DHT22;38934;52.690;6.184;2023-10-31T13:08:55;12.00;99.90
53053;DHT22;38934;52.690;6.184;2023-10-31T13:11:22;12.00;99.90
53053;DHT22;38934;52.690;6.184;2023-10-31T13:13:52;12.00;99.90
53053;DHT22;38934;52.690;6.184;2023-10-31T13:16:19;12.00;99.90
53053;DHT22;38934;52.690;6.184;2023-10-31T13:18:44;12.00;99.90
53053;DHT22;38934;52.690;6.184;2023-10-31T13:21:10;12.00;99.90
53053;DHT22;38934;52.690;6.184;2023-10-31T13:23:38;12.00;99.90
53053;DHT22;38934;52.690;6.184;2023-10-31T13:26:04;12.10;99.90
53053;DHT22;38934;52.690;6.184;2023-10-31T13:28:30;12.10;99.90
53053;DHT22;38934;52.690;6.184;2023-10-31T13:30:57;12.20;99.90
53053;DHT22;38934;52.690;6.184;2023-10-31T13:33:23;12.20;99.90
53053;DHT22;38934;52.690;6.184;2023-10-31T13:35:49;12.20;99.90
53053;DHT22;38934;52.690;6.184;2023-10-31T13:38:14;12.20;99.90
53053;DHT22;38934;52.690;6.184;2023-10-31T13:40:40;12.10;99.90
53053;DHT22;38934;52.690;6.184;2023-10-31T13:43:06;12.20;99.90
53053;DHT22;38934;52.690;6.184;2023-10-31T13:45:33;12.20;99.90
53053;DHT22;38934;52.690;6.184;2023-10-31T13:47:59;12.30;99.90
53053;DHT22;38934;52.690;6.184;2023-10-31T13:50:25;12.40;99.90
53053;DHT22;38934;52.690;6.184;2023-10-31T13:52:50;12.60;99.90
53053;DHT22;38934;52.690;6.184;2023-10-31T13:55:18;12.60;99.90
53053;DHT22;38934;52.690;6.184;2023-10-31T13:57:44;12.60;99.90
53053;DHT22;38934;52.690;6.184;2023-10-31T14:00:10;12.60;99.90
53053;DHT22;38934;52.690;6.184;2023-10-31T14:02:36;12.60;99.90
53053;DHT22;38934;52.690;6.184;2023-10-31T14:05:02;12.60;99.90
53053;DHT22;38934;52.690;6.184;2023-10-31T14:07:29;12.60;99.90
53053;DHT22;38934;52.690;6.184;2023-10-31T14:09:55;12.60;99.90
53053;DHT22;38934;52.690;6.184;2023-10-31T14:12:22;12.60;99.90
53053;DHT22;38934;52.690;6.184;2023-10-31T14:14:48;12.50;99.90
53053;DHT22;38934;52.690;6.184;2023-10-31T14:17:15;12.40;99.90
53053;DHT22;38934;52.690;6.184;2023-10-31T14:19:42;12.40;99.90
53053;DHT22;38934;52.690;6.184;2023-10-31T14:22:08;12.30;99.90
53053;DHT22;38934;52.690;6.184;2023-10-31T14:24:34;12.30;99.90
53053;DHT22;38934;52.690;6.184;2023-10-31T14:27:00;12.20;99.90
53053;DHT22;38934;52.690;6.184;2023-10-31T14:29:26;12.30;99.90
53053;DHT22;38934;52.690;6.184;2023-10-31T14:31:52;12.20;99.90
53053;DHT22;38934;52.690;6.184;2023-10-31T14:34:20;12.20;99.90
53053;DHT22;38934;52.690;6.184;2023-10-31T14:36:46;12.10;99.90
53053;DHT22;38934;52.690;6.184;2023-10-31T14:39:12;12.10;99.90
53053;DHT22;38934;52.690;6.184;2023-10-31T14:41:39;12.00;99.90
53053;DHT22;38934;52.690;6.184;2023-10-31T14:44:05;12.00;99.90
53053;DHT22;38934;52.690;6.184;2023-10-31T14:46:33;11.90;99.90
53053;DHT22;38934;52.690;6.184;2023-10-31T14:48:58;11.90;99.90
53053;DHT22;38934;52.690;6.184;2023-10-31T14:51:24;11.80;99.90
53053;DHT22;38934;52.690;6.184;2023-10-31T14:53:50;11.80;99.90
53053;DHT22;38934;52.690;6.184;2023-10-31T14:56:16;11.80;99.90
53053;DHT22;38934;52.690;6.184;2023-10-31T14:58:42;11.90;99.90
53053;DHT22;38934;52.690;6.184;2023-10-31T15:01:08;11.80;99.90
53053;DHT22;38934;52.690;6.184;2023-10-31T15:03:33;11.80;99.90
53053;DHT22;38934;52.690;6.184;2023-10-31T15:05:59;11.70;99.90
53053;DHT22;38934;52.690;6.184;2023-10-31T15:08:25;11.70;99.90
53053;DHT22;38934;52.690;6.184;2023-10-31T15:10:51;11.60;99.90
53053;DHT22;38934;52.690;6.184;2023-10-31T15:13:17;11.50;99.90
53053;DHT22;38934;52.690;6.184;2023-10-31T15:15:43;11.50;99.90
53053;DHT22;38934;52.690;6.184;2023-10-31T15:18:09;11.40;99.90
53053;DHT22;38934;52.690;6.184;2023-10-31T15:20:35;11.40;99.90
53053;DHT22;38934;52.690;6.184;2023-10-31T15:23:01;11.30;99.90
53053;DHT22;38934;52.690;6.184;2023-10-31T15:25:26;11.30;99.90
53053;DHT22;38934;52.690;6.184;2023-10-31T15:27:52;11.20;99.90
53053;DHT22;38934;52.690;6.184;2023-10-31T15:30:18;11.20;99.90
53053;DHT22;38934;52.690;6.184;2023-10-31T15:32:43;11.10;99.90
53053;DHT22;38934;52.690;6.184;2023-10-31T15:35:09;11.10;99.90